Archival Weather

Salzburg

Salzburg, Austria (LOWS)

Report from: Thursday, September 21, 2023 5:50 AM CEST
Current time: Saturday, March 2, 2024 11:32 AM CET

Current weather – Weather history – Daily summaries
Weather forecast

Temperature15.0°C (59.0°F)
Dew point11.0°C (51.8°F)
Winds 6 kts (3.1 m/s, 6.9 mph) South-Southeast (150°)
Visibility6.2 mi. (10 km)
Clouds Few clouds 10,000 ft. (3,048 m)
Altimeter29.74 in.Hg (1007 mB)
Relative humidity77 %
Density altitude397 ft. (121 m)
Remarks Fully automated report
No significant changes expected in the next two hours
Flight conditions Visual Meteorological Conditions
Raw dataLOWS 210350Z AUTO 15006KT 9999 FEW100 15/11 Q1007 NOSIG
An error has occurred. This application may no longer respond until reloaded. Reload 🗙